sensor_id;sensor_type;location;lat;lon;timestamp;pressure;altitude;pressure_sealevel;temperature;humidity
26807;BME280;14380;49.910;6.792;2023-11-18T00:00:44;99628.72;;;6.74;100.00
26807;BME280;14380;49.910;6.792;2023-11-18T00:03:11;99619.34;;;6.98;100.00
26807;BME280;14380;49.910;6.792;2023-11-18T00:05:37;99614.00;;;7.03;100.00
26807;BME280;14380;49.910;6.792;2023-11-18T00:08:05;99603.03;;;7.18;100.00
26807;BME280;14380;49.910;6.792;2023-11-18T00:10:32;99612.06;;;6.75;100.00
26807;BME280;14380;49.910;6.792;2023-11-18T00:12:58;99603.66;;;6.95;100.00
26807;BME280;14380;49.910;6.792;2023-11-18T00:15:27;99604.66;;;6.91;100.00
26807;BME280;14380;49.910;6.792;2023-11-18T00:17:53;99599.50;;;7.21;100.00
26807;BME280;14380;49.910;6.792;2023-11-18T00:20:20;99598.75;;;7.16;100.00
26807;BME280;14380;49.910;6.792;2023-11-18T00:22:49;99600.59;;;7.12;100.00
26807;BME280;14380;49.910;6.792;2023-11-18T00:25:17;99603.19;;;7.13;100.00
26807;BME280;14380;49.910;6.792;2023-11-18T00:27:44;99607.84;;;7.04;100.00
26807;BME280;14380;49.910;6.792;2023-11-18T00:30:11;99605.75;;;7.15;100.00
26807;BME280;14380;49.910;6.792;2023-11-18T00:32:38;99605.66;;;7.20;100.00
26807;BME280;14380;49.910;6.792;2023-11-18T00:35:05;99605.84;;;7.12;100.00
26807;BME280;14380;49.910;6.792;2023-11-18T00:37:32;99604.84;;;7.16;100.00
26807;BME280;14380;49.910;6.792;2023-11-18T00:39:59;99603.38;;;7.39;100.00
26807;BME280;14380;49.910;6.792;2023-11-18T00:42:27;99599.03;;;7.36;100.00
26807;BME280;14380;49.910;6.792;2023-11-18T00:44:54;99601.63;;;7.38;100.00
26807;BME280;14380;49.910;6.792;2023-11-18T00:47:21;99595.69;;;7.31;100.00
26807;BME280;14380;49.910;6.792;2023-11-18T00:49:48;99593.84;;;7.03;100.00
26807;BME280;14380;49.910;6.792;2023-11-18T00:52:17;99594.25;;;7.21;100.00
26807;BME280;14380;49.910;6.792;2023-11-18T00:54:43;99581.91;;;6.91;100.00
26807;BME280;14380;49.910;6.792;2023-11-18T00:57:10;99574.78;;;6.95;100.00
26807;BME280;14380;49.910;6.792;2023-11-18T00:59:41;99577.06;;;6.76;100.00
26807;BME280;14380;49.910;6.792;2023-11-18T01:02:08;99576.56;;;6.94;100.00
26807;BME280;14380;49.910;6.792;2023-11-18T01:04:34;99571.25;;;6.96;100.00
26807;BME280;14380;49.910;6.792;2023-11-18T01:07:01;99570.88;;;7.10;100.00
26807;BME280;14380;49.910;6.792;2023-11-18T01:09:28;99574.31;;;7.12;100.00
26807;BME280;14380;49.910;6.792;2023-11-18T01:11:54;99586.91;;;7.01;100.00
26807;BME280;14380;49.910;6.792;2023-11-18T01:14:21;99590.00;;;7.15;100.00
26807;BME280;14380;49.910;6.792;2023-11-18T01:16:49;99590.56;;;7.26;100.00
26807;BME280;14380;49.910;6.792;2023-11-18T01:19:16;99593.94;;;7.32;100.00
26807;BME280;14380;49.910;6.792;2023-11-18T01:21:43;99594.34;;;7.16;100.00
26807;BME280;14380;49.910;6.792;2023-11-18T01:24:09;99586.91;;;7.01;100.00
26807;BME280;14380;49.910;6.792;2023-11-18T01:26:36;99597.44;;;6.99;100.00
26807;BME280;14380;49.910;6.792;2023-11-18T01:29:03;99596.88;;;7.21;100.00
26807;BME280;14380;49.910;6.792;2023-11-18T01:31:29;99613.28;;;6.96;100.00
26807;BME280;14380;49.910;6.792;2023-11-18T01:33:58;99604.81;;;6.84;100.00
26807;BME280;14380;49.910;6.792;2023-11-18T01:36:25;99598.31;;;6.99;100.00
26807;BME280;14380;49.910;6.792;2023-11-18T01:38:51;99611.22;;;6.74;100.00
26807;BME280;14380;49.910;6.792;2023-11-18T01:41:20;99601.75;;;7.02;100.00
26807;BME280;14380;49.910;6.792;2023-11-18T01:43:47;99608.75;;;7.03;100.00
26807;BME280;14380;49.910;6.792;2023-11-18T01:46:13;99608.00;;;6.97;100.00
26807;BME280;14380;49.910;6.792;2023-11-18T01:48:40;99605.00;;;7.11;100.00
26807;BME280;14380;49.910;6.792;2023-11-18T01:51:09;99605.91;;;7.09;100.00
26807;BME280;14380;49.910;6.792;2023-11-18T01:53:37;99600.50;;;7.15;100.00
26807;BME280;14380;49.910;6.792;2023-11-18T01:56:06;99599.28;;;6.95;100.00
26807;BME280;14380;49.910;6.792;2023-11-18T01:58:33;99600.88;;;7.03;100.00
26807;BME280;14380;49.910;6.792;2023-11-18T02:01:01;99595.31;;;7.13;100.00
26807;BME280;14380;49.910;6.792;2023-11-18T02:03:28;99597.84;;;7.17;100.00
26807;BME280;14380;49.910;6.792;2023-11-18T02:05:55;99607.47;;;7.16;100.00
26807;BME280;14380;49.910;6.792;2023-11-18T02:08:24;99610.19;;;7.13;100.00
26807;BME280;14380;49.910;6.792;2023-11-18T02:11:05;99609.06;;;6.90;100.00
26807;BME280;14380;49.910;6.792;2023-11-18T02:13:37;99598.41;;;6.96;100.00
26807;BME280;14380;49.910;6.792;2023-11-18T02:16:07;99601.28;;;7.19;100.00
26807;BME280;14380;49.910;6.792;2023-11-18T02:18:35;99590.97;;;7.12;100.00
26807;BME280;14380;49.910;6.792;2023-11-18T02:21:06;99599.25;;;6.97;100.00
26807;BME280;14380;49.910;6.792;2023-11-18T02:23:34;99602.47;;;7.07;100.00
26807;BME280;14380;49.910;6.792;2023-11-18T02:26:04;99602.66;;;7.01;100.00
26807;BME280;14380;49.910;6.792;2023-11-18T02:28:31;99604.50;;;6.97;100.00
26807;BME280;14380;49.910;6.792;2023-11-18T02:31:02;99603.50;;;7.01;100.00
26807;BME280;14380;49.910;6.792;2023-11-18T02:33:35;99604.78;;;6.86;100.00
26807;BME280;14380;49.910;6.792;2023-11-18T02:36:09;99598.00;;;7.10;100.00
26807;BME280;14380;49.910;6.792;2023-11-18T02:38:41;99598.16;;;7.06;100.00
26807;BME280;14380;49.910;6.792;2023-11-18T02:41:12;99605.34;;;7.31;100.00
26807;BME280;14380;49.910;6.792;2023-11-18T02:43:40;99618.25;;;7.38;100.00
26807;BME280;14380;49.910;6.792;2023-11-18T02:46:07;99623.38;;;7.11;100.00
26807;BME280;14380;49.910;6.792;2023-11-18T02:48:34;99622.16;;;7.23;100.00
26807;BME280;14380;49.910;6.792;2023-11-18T02:51:02;99617.91;;;7.19;100.00
26807;BME280;14380;49.910;6.792;2023-11-18T02:53:29;99621.59;;;7.12;100.00
26807;BME280;14380;49.910;6.792;2023-11-18T02:55:55;99616.06;;;7.23;100.00
26807;BME280;14380;49.910;6.792;2023-11-18T02:58:29;99606.31;;;7.26;100.00
26807;BME280;14380;49.910;6.792;2023-11-18T03:00:55;99607.41;;;7.51;100.00
26807;BME280;14380;49.910;6.792;2023-11-18T03:03:22;99600.50;;;7.47;100.00
26807;BME280;14380;49.910;6.792;2023-11-18T03:05:49;99596.50;;;7.33;100.00
26807;BME280;14380;49.910;6.792;2023-11-18T03:08:15;99597.44;;;7.62;100.00
26807;BME280;14380;49.910;6.792;2023-11-18T03:10:42;99587.50;;;7.42;100.00
26807;BME280;14380;49.910;6.792;2023-11-18T03:13:09;99598.31;;;7.31;100.00
26807;BME280;14380;49.910;6.792;2023-11-18T03:15:38;99595.16;;;7.50;100.00
26807;BME280;14380;49.910;6.792;2023-11-18T03:18:05;99589.47;;;7.65;100.00
26807;BME280;14380;49.910;6.792;2023-11-18T03:20:33;99593.72;;;7.69;100.00
26807;BME280;14380;49.910;6.792;2023-11-18T03:23:00;99603.44;;;7.36;100.00
26807;BME280;14380;49.910;6.792;2023-11-18T03:25:27;99616.19;;;7.50;100.00
26807;BME280;14380;49.910;6.792;2023-11-18T03:27:53;99609.47;;;7.39;100.00
26807;BME280;14380;49.910;6.792;2023-11-18T03:30:21;99608.44;;;7.45;100.00
26807;BME280;14380;49.910;6.792;2023-11-18T03:32:49;99608.69;;;7.36;100.00
26807;BME280;14380;49.910;6.792;2023-11-18T03:35:15;99607.19;;;7.27;100.00
26807;BME280;14380;49.910;6.792;2023-11-18T03:37:42;99597.78;;;7.50;100.00
26807;BME280;14380;49.910;6.792;2023-11-18T03:40:09;99591.53;;;7.54;100.00
26807;BME280;14380;49.910;6.792;2023-11-18T03:42:36;99590.63;;;7.55;100.00
26807;BME280;14380;49.910;6.792;2023-11-18T03:45:04;99591.69;;;7.49;100.00
26807;BME280;14380;49.910;6.792;2023-11-18T03:47:30;99588.28;;;7.46;100.00
26807;BME280;14380;49.910;6.792;2023-11-18T03:49:58;99589.38;;;7.68;100.00
26807;BME280;14380;49.910;6.792;2023-11-18T03:52:25;99593.94;;;7.30;100.00
26807;BME280;14380;49.910;6.792;2023-11-18T03:54:52;99585.69;;;7.44;100.00
26807;BME280;14380;49.910;6.792;2023-11-18T03:57:20;99586.47;;;7.48;100.00
26807;BME280;14380;49.910;6.792;2023-11-18T03:59:46;99586.47;;;7.48;100.00
26807;BME280;14380;49.910;6.792;2023-11-18T04:02:13;99579.25;;;7.54;100.00
26807;BME280;14380;49.910;6.792;2023-11-18T04:04:39;99579.47;;;7.47;100.00
26807;BME280;14380;49.910;6.792;2023-11-18T04:07:07;99567.13;;;7.50;100.00
26807;BME280;14380;49.910;6.792;2023-11-18T04:09:34;99573.72;;;7.34;100.00
26807;BME280;14380;49.910;6.792;2023-11-18T04:12:00;99559.38;;;7.46;100.00
26807;BME280;14380;49.910;6.792;2023-11-18T04:14:26;99566.94;;;7.56;100.00
26807;BME280;14380;49.910;6.792;2023-11-18T04:16:53;99571.28;;;7.57;100.00
26807;BME280;14380;49.910;6.792;2023-11-18T04:19:20;99570.25;;;7.63;100.00
26807;BME280;14380;49.910;6.792;2023-11-18T04:21:47;99574.72;;;7.29;100.00
26807;BME280;14380;49.910;6.792;2023-11-18T04:24:15;99576.91;;;7.45;100.00
26807;BME280;14380;49.910;6.792;2023-11-18T04:26:42;99573.06;;;7.27;100.00
26807;BME280;14380;49.910;6.792;2023-11-18T04:29:09;99583.25;;;7.38;100.00
26807;BME280;14380;49.910;6.792;2023-11-18T04:31:35;99577.94;;;7.39;100.00
26807;BME280;14380;49.910;6.792;2023-11-18T04:34:02;99580.16;;;7.53;100.00
26807;BME280;14380;49.910;6.792;2023-11-18T04:36:29;99583.00;;;7.46;100.00
26807;BME280;14380;49.910;6.792;2023-11-18T04:38:56;99582.19;;;7.43;100.00
26807;BME280;14380;49.910;6.792;2023-11-18T04:41:24;99571.94;;;7.34;100.00
26807;BME280;14380;49.910;6.792;2023-11-18T04:43:51;99577.84;;;7.42;100.00
26807;BME280;14380;49.910;6.792;2023-11-18T04:46:18;99578.63;;;7.46;100.00
26807;BME280;14380;49.910;6.792;2023-11-18T04:48:47;99574.13;;;7.50;100.00
26807;BME280;14380;49.910;6.792;2023-11-18T04:51:13;99560.91;;;7.53;100.00
26807;BME280;14380;49.910;6.792;2023-11-18T04:53:40;99557.19;;;7.60;100.00
26807;BME280;14380;49.910;6.792;2023-11-18T04:56:07;99563.38;;;7.57;100.00
26807;BME280;14380;49.910;6.792;2023-11-18T04:58:38;99557.63;;;7.46;100.00
26807;BME280;14380;49.910;6.792;2023-11-18T05:01:05;99555.69;;;7.51;100.00
26807;BME280;14380;49.910;6.792;2023-11-18T05:03:31;99550.19;;;7.29;100.00
26807;BME280;14380;49.910;6.792;2023-11-18T05:05:58;99544.41;;;7.48;100.00
26807;BME280;14380;49.910;6.792;2023-11-18T05:08:24;99554.13;;;7.46;100.00
26807;BME280;14380;49.910;6.792;2023-11-18T05:10:52;99549.50;;;7.54;100.00
26807;BME280;14380;49.910;6.792;2023-11-18T05:13:19;99552.13;;;7.54;100.00
26807;BME280;14380;49.910;6.792;2023-11-18T05:15:48;99537.84;;;7.33;100.00
26807;BME280;14380;49.910;6.792;2023-11-18T05:18:15;99528.41;;;7.55;100.00
26807;BME280;14380;49.910;6.792;2023-11-18T05:20:43;99535.81;;;7.42;100.00
26807;BME280;14380;49.910;6.792;2023-11-18T05:23:09;99527.91;;;7.44;100.00
26807;BME280;14380;49.910;6.792;2023-11-18T05:25:36;99537.41;;;7.48;100.00
26807;BME280;14380;49.910;6.792;2023-11-18T05:28:03;99536.19;;;7.60;100.00
26807;BME280;14380;49.910;6.792;2023-11-18T05:30:30;99526.56;;;7.59;100.00
26807;BME280;14380;49.910;6.792;2023-11-18T05:32:58;99522.53;;;7.76;100.00
26807;BME280;14380;49.910;6.792;2023-11-18T05:35:25;99525.94;;;7.51;100.00
26807;BME280;14380;49.910;6.792;2023-11-18T05:37:54;99530.00;;;7.61;100.00
26807;BME280;14380;49.910;6.792;2023-11-18T05:40:20;99524.41;;;7.43;100.00
26807;BME280;14380;49.910;6.792;2023-11-18T05:42:48;99537.84;;;7.63;100.00
26807;BME280;14380;49.910;6.792;2023-11-18T05:45:17;99538.47;;;7.71;100.00
26807;BME280;14380;49.910;6.792;2023-11-18T05:47:53;99530.28;;;7.52;100.00
26807;BME280;14380;49.910;6.792;2023-11-18T05:50:21;99539.56;;;7.64;100.00
26807;BME280;14380;49.910;6.792;2023-11-18T05:52:49;99532.16;;;7.48;100.00
26807;BME280;14380;49.910;6.792;2023-11-18T05:55:16;99515.91;;;7.64;100.00
26807;BME280;14380;49.910;6.792;2023-11-18T05:57:42;99516.25;;;7.53;100.00
26807;BME280;14380;49.910;6.792;2023-11-18T06:00:11;99504.81;;;7.54;100.00
26807;BME280;14380;49.910;6.792;2023-11-18T06:02:41;99489.59;;;7.65;100.00
26807;BME280;14380;49.910;6.792;2023-11-18T06:05:08;99489.97;;;7.53;100.00
26807;BME280;14380;49.910;6.792;2023-11-18T06:07:36;99496.69;;;7.33;100.00
26807;BME280;14380;49.910;6.792;2023-11-18T06:10:06;99492.41;;;7.59;100.00
26807;BME280;14380;49.910;6.792;2023-11-18T06:12:33;99494.91;;;7.34;100.00
26807;BME280;14380;49.910;6.792;2023-11-18T06:15:01;99502.28;;;7.51;100.00
26807;BME280;14380;49.910;6.792;2023-11-18T06:17:27;99499.59;;;7.52;100.00
26807;BME280;14380;49.910;6.792;2023-11-18T06:19:54;99490.72;;;7.56;100.00
26807;BME280;14380;49.910;6.792;2023-11-18T06:22:20;99491.31;;;7.66;100.00
26807;BME280;14380;49.910;6.792;2023-11-18T06:24:48;99491.81;;;7.78;100.00
26807;BME280;14380;49.910;6.792;2023-11-18T06:27:15;99491.31;;;7.66;100.00
26807;BME280;14380;49.910;6.792;2023-11-18T06:29:44;99479.00;;;7.67;100.00
26807;BME280;14380;49.910;6.792;2023-11-18T06:32:11;99483.78;;;7.82;100.00
26807;BME280;14380;49.910;6.792;2023-11-18T06:34:37;99487.78;;;7.67;100.00
26807;BME280;14380;49.910;6.792;2023-11-18T06:37:04;99485.06;;;7.70;100.00
26807;BME280;14380;49.910;6.792;2023-11-18T06:39:30;99483.69;;;7.85;100.00
26807;BME280;14380;49.910;6.792;2023-11-18T06:42:01;99480.91;;;7.90;100.00
26807;BME280;14380;49.910;6.792;2023-11-18T06:44:30;99482.81;;;7.85;100.00
26807;BME280;14380;49.910;6.792;2023-11-18T06:46:56;99481.38;;;7.74;100.00
26807;BME280;14380;49.910;6.792;2023-11-18T06:49:23;99481.91;;;7.86;100.00
26807;BME280;14380;49.910;6.792;2023-11-18T06:51:50;99483.72;;;7.84;100.00
26807;BME280;14380;49.910;6.792;2023-11-18T06:54:18;99493.22;;;7.61;100.00
26807;BME280;14380;49.910;6.792;2023-11-18T06:56:44;99477.75;;;7.79;100.00
26807;BME280;14380;49.910;6.792;2023-11-18T06:59:13;99471.59;;;7.80;100.00
26807;BME280;14380;49.910;6.792;2023-11-18T07:01:40;99465.75;;;7.71;100.00
26807;BME280;14380;49.910;6.792;2023-11-18T07:04:07;99478.44;;;7.85;100.00
26807;BME280;14380;49.910;6.792;2023-11-18T07:06:34;99479.63;;;7.75;100.00
26807;BME280;14380;49.910;6.792;2023-11-18T07:09:04;99480.53;;;7.74;100.00
26807;BME280;14380;49.910;6.792;2023-11-18T07:11:38;99492.94;;;7.70;100.00
26807;BME280;14380;49.910;6.792;2023-11-18T07:14:04;99499.31;;;7.90;100.00
26807;BME280;14380;49.910;6.792;2023-11-18T07:16:33;99488.25;;;7.80;100.00
26807;BME280;14380;49.910;6.792;2023-11-18T07:18:59;99492.53;;;7.83;100.00
26807;BME280;14380;49.910;6.792;2023-11-18T07:21:28;99482.78;;;7.86;100.00
26807;BME280;14380;49.910;6.792;2023-11-18T07:23:55;99484.16;;;7.98;100.00
26807;BME280;14380;49.910;6.792;2023-11-18T07:26:21;99476.47;;;7.92;100.00
26807;BME280;14380;49.910;6.792;2023-11-18T07:28:49;99469.19;;;8.00;100.00
26807;BME280;14380;49.910;6.792;2023-11-18T07:31:17;99484.31;;;7.94;100.00
26807;BME280;14380;49.910;6.792;2023-11-18T07:33:45;99479.84;;;7.96;100.00
26807;BME280;14380;49.910;6.792;2023-11-18T07:36:14;99485.75;;;7.76;100.00
26807;BME280;14380;49.910;6.792;2023-11-18T07:38:41;99477.03;;;7.73;100.00
26807;BME280;14380;49.910;6.792;2023-11-18T07:41:07;99470.41;;;7.62;100.00
26807;BME280;14380;49.910;6.792;2023-11-18T07:43:34;99473.19;;;7.85;100.00
26807;BME280;14380;49.910;6.792;2023-11-18T07:46:03;99476.09;;;7.76;100.00
26807;BME280;14380;49.910;6.792;2023-11-18T07:48:30;99481.25;;;7.51;100.00
26807;BME280;14380;49.910;6.792;2023-11-18T07:51:01;99477.78;;;7.50;100.00
26807;BME280;14380;49.910;6.792;2023-11-18T07:53:27;99486.53;;;7.51;100.00
26807;BME280;14380;49.910;6.792;2023-11-18T07:59:17;99495.69;;;7.66;100.00
26807;BME280;14380;49.910;6.792;2023-11-18T08:01:43;99494.34;;;7.81;100.00
26807;BME280;14380;49.910;6.792;2023-11-18T08:04:11;99492.31;;;7.89;100.00
26807;BME280;14380;49.910;6.792;2023-11-18T08:06:40;99488.16;;;7.82;100.00
26807;BME280;14380;49.910;6.792;2023-11-18T08:09:08;99483.50;;;7.92;100.00
26807;BME280;14380;49.910;6.792;2023-11-18T08:11:38;99471.59;;;7.80;100.00
26807;BME280;14380;49.910;6.792;2023-11-18T08:14:06;99458.84;;;7.94;100.00
26807;BME280;14380;49.910;6.792;2023-11-18T08:16:33;99452.16;;;7.85;100.00
26807;BME280;14380;49.910;6.792;2023-11-18T08:19:00;99456.88;;;7.74;100.00
26807;BME280;14380;49.910;6.792;2023-11-18T08:21:28;99460.63;;;7.67;100.00
26807;BME280;14380;49.910;6.792;2023-11-18T08:23:57;99475.53;;;7.93;100.00
26807;BME280;14380;49.910;6.792;2023-11-18T08:26:25;99473.53;;;8.01;100.00
26807;BME280;14380;49.910;6.792;2023-11-18T08:28:52;99473.25;;;8.09;100.00
26807;BME280;14380;49.910;6.792;2023-11-18T08:31:18;99473.69;;;8.22;100.00
26807;BME280;14380;49.910;6.792;2023-11-18T08:33:45;99472.44;;;8.07;100.00
26807;BME280;14380;49.910;6.792;2023-11-18T08:36:12;99475.28;;;8.28;100.00
26807;BME280;14380;49.910;6.792;2023-11-18T08:38:39;99474.47;;;7.99;100.00
26807;BME280;14380;49.910;6.792;2023-11-18T08:41:10;99479.34;;;8.11;100.00
26807;BME280;14380;49.910;6.792;2023-11-18T08:43:37;99486.94;;;8.46;100.00
26807;BME280;14380;49.910;6.792;2023-11-18T08:46:06;99490.28;;;8.24;100.00
26807;BME280;14380;49.910;6.792;2023-11-18T08:48:33;99490.72;;;8.12;100.00
26807;BME280;14380;49.910;6.792;2023-11-18T08:51:00;99488.09;;;8.12;100.00
26807;BME280;14380;49.910;6.792;2023-11-18T08:53:26;99491.16;;;8.25;100.00
26807;BME280;14380;49.910;6.792;2023-11-18T08:55:53;99499.81;;;8.01;100.00
26807;BME280;14380;49.910;6.792;2023-11-18T08:58:22;99497.59;;;8.16;100.00
26807;BME280;14380;49.910;6.792;2023-11-18T09:00:53;99502.16;;;8.11;100.00
26807;BME280;14380;49.910;6.792;2023-11-18T09:03:22;99489.91;;;8.10;100.00
26807;BME280;14380;49.910;6.792;2023-11-18T09:05:55;99484.25;;;8.47;100.00
26807;BME280;14380;49.910;6.792;2023-11-18T09:08:27;99490.00;;;8.33;100.00
26807;BME280;14380;49.910;6.792;2023-11-18T09:10:55;99492.19;;;8.21;100.00
26807;BME280;14380;49.910;6.792;2023-11-18T09:13:26;99494.19;;;8.12;100.00
26807;BME280;14380;49.910;6.792;2023-11-18T09:15:55;99487.56;;;8.27;100.00
26807;BME280;14380;49.910;6.792;2023-11-18T09:18:23;99481.59;;;8.22;100.00
26807;BME280;14380;49.910;6.792;2023-11-18T09:20:50;99483.88;;;8.06;100.00
26807;BME280;14380;49.910;6.792;2023-11-18T09:23:17;99481.03;;;8.14;100.00
26807;BME280;14380;49.910;6.792;2023-11-18T09:25:47;99483.78;;;8.36;100.00
26807;BME280;14380;49.910;6.792;2023-11-18T09:28:15;99487.41;;;8.32;100.00
26807;BME280;14380;49.910;6.792;2023-11-18T09:30:45;99476.72;;;8.37;100.00
26807;BME280;14380;49.910;6.792;2023-11-18T09:33:19;99478.91;;;8.51;100.00
26807;BME280;14380;49.910;6.792;2023-11-18T09:35:55;99483.53;;;8.42;100.00
26807;BME280;14380;49.910;6.792;2023-11-18T09:38:24;99473.53;;;8.54;100.00
26807;BME280;14380;49.910;6.792;2023-11-18T09:40:53;99467.31;;;8.29;100.00
26807;BME280;14380;49.910;6.792;2023-11-18T09:43:22;99469.72;;;8.37;100.00
26807;BME280;14380;49.910;6.792;2023-11-18T09:45:54;99473.59;;;8.52;100.00
26807;BME280;14380;49.910;6.792;2023-11-18T09:48:21;99475.59;;;8.44;100.00
26807;BME280;14380;49.910;6.792;2023-11-18T09:50:51;99487.19;;;8.65;100.00
26807;BME280;14380;49.910;6.792;2023-11-18T09:53:19;99489.19;;;8.82;100.00
26807;BME280;14380;49.910;6.792;2023-11-18T09:55:50;99490.22;;;8.78;100.00
26807;BME280;14380;49.910;6.792;2023-11-18T09:58:21;99493.47;;;8.61;100.00
26807;BME280;14380;49.910;6.792;2023-11-18T10:00:57;99501.56;;;8.55;100.00
26807;BME280;14380;49.910;6.792;2023-11-18T10:03:27;99489.53;;;8.73;100.00
26807;BME280;14380;49.910;6.792;2023-11-18T10:05:55;99486.31;;;8.65;100.00
26807;BME280;14380;49.910;6.792;2023-11-18T10:08:22;99488.56;;;8.75;100.00
26807;BME280;14380;49.910;6.792;2023-11-18T10:10:51;99480.38;;;8.83;100.00
26807;BME280;14380;49.910;6.792;2023-11-18T10:13:31;99469.00;;;8.83;100.00
26807;BME280;14380;49.910;6.792;2023-11-18T10:16:01;99461.56;;;8.70;100.00
26807;BME280;14380;49.910;6.792;2023-11-18T10:18:30;99468.78;;;8.63;100.00
26807;BME280;14380;49.910;6.792;2023-11-18T10:21:00;99461.16;;;8.81;100.00
26807;BME280;14380;49.910;6.792;2023-11-18T10:23:29;99456.22;;;8.72;100.00
26807;BME280;14380;49.910;6.792;2023-11-18T10:25:59;99454.72;;;8.65;100.00
26807;BME280;14380;49.910;6.792;2023-11-18T10:28:27;99448.97;;;8.78;100.00
26807;BME280;14380;49.910;6.792;2023-11-18T10:30:55;99448.28;;;8.97;100.00
26807;BME280;14380;49.910;6.792;2023-11-18T10:33:26;99439.41;;;8.76;100.00
26807;BME280;14380;49.910;6.792;2023-11-18T10:35:56;99445.81;;;8.92;100.00
26807;BME280;14380;49.910;6.792;2023-11-18T10:38:23;99430.91;;;9.15;100.00
26807;BME280;14380;49.910;6.792;2023-11-18T10:40:55;99434.34;;;9.17;100.00
26807;BME280;14380;49.910;6.792;2023-11-18T10:43:22;99419.28;;;9.21;100.00
26807;BME280;14380;49.910;6.792;2023-11-18T10:45:51;99427.84;;;9.04;100.00
26807;BME280;14380;49.910;6.792;2023-11-18T10:48:19;99421.91;;;8.99;100.00
26807;BME280;14380;49.910;6.792;2023-11-18T10:50:49;99412.34;;;9.18;100.00
26807;BME280;14380;49.910;6.792;2023-11-18T10:53:18;99404.06;;;9.05;100.00
26807;BME280;14380;49.910;6.792;2023-11-18T10:55:45;99407.50;;;9.07;100.00
26807;BME280;14380;49.910;6.792;2023-11-18T10:58:11;99411.75;;;8.64;100.00
26807;BME280;14380;49.910;6.792;2023-11-18T11:00:46;99410.13;;;8.84;100.00
26807;BME280;14380;49.910;6.792;2023-11-18T11:03:14;99415.19;;;8.90;100.00
26807;BME280;14380;49.910;6.792;2023-11-18T11:05:40;99410.66;;;8.93;100.00
26807;BME280;14380;49.910;6.792;2023-11-18T11:08:11;99401.25;;;9.10;100.00
26807;BME280;14380;49.910;6.792;2023-11-18T11:10:41;99397.09;;;9.04;100.00
26807;BME280;14380;49.910;6.792;2023-11-18T11:13:09;99383.44;;;9.17;100.00
26807;BME280;14380;49.910;6.792;2023-11-18T11:15:40;99382.69;;;9.13;100.00
26807;BME280;14380;49.910;6.792;2023-11-18T11:18:12;99384.97;;;9.22;100.00
26807;BME280;14380;49.910;6.792;2023-11-18T11:20:55;99377.25;;;9.18;100.00
26807;BME280;14380;49.910;6.792;2023-11-18T11:23:35;99368.84;;;9.30;100.00
26807;BME280;14380;49.910;6.792;2023-11-18T11:26:16;99362.47;;;9.58;100.00
26807;BME280;14380;49.910;6.792;2023-11-18T11:28:52;99364.34;;;9.55;100.00
26807;BME280;14380;49.910;6.792;2023-11-18T11:31:28;99353.41;;;9.64;100.00
26807;BME280;14380;49.910;6.792;2023-11-18T11:33:59;99351.66;;;9.64;100.00
26807;BME280;14380;49.910;6.792;2023-11-18T11:36:35;99348.81;;;9.48;100.00
26807;BME280;14380;49.910;6.792;2023-11-18T11:39:06;99344.31;;;9.28;100.00
26807;BME280;14380;49.910;6.792;2023-11-18T11:41:42;99336.00;;;9.60;100.00
26807;BME280;14380;49.910;6.792;2023-11-18T11:44:11;99332.66;;;9.77;100.00
26807;BME280;14380;49.910;6.792;2023-11-18T11:46:39;99338.34;;;9.88;100.00
26807;BME280;14380;49.910;6.792;2023-11-18T11:49:09;99343.38;;;9.51;100.00
26807;BME280;14380;49.910;6.792;2023-11-18T11:51:46;99336.13;;;9.57;100.00
26807;BME280;14380;49.910;6.792;2023-11-18T11:54:20;99339.19;;;9.68;100.00
26807;BME280;14380;49.910;6.792;2023-11-18T11:56:48;99339.22;;;9.89;100.00
26807;BME280;14380;49.910;6.792;2023-11-18T11:59:34;99329.44;;;9.91;100.00
26807;BME280;14380;49.910;6.792;2023-11-18T12:02:03;99326.47;;;9.78;100.00
26807;BME280;14380;49.910;6.792;2023-11-18T12:04:33;99320.47;;;9.95;100.00
26807;BME280;14380;49.910;6.792;2023-11-18T12:07:03;99309.41;;;9.66;100.00
26807;BME280;14380;49.910;6.792;2023-11-18T12:09:32;99298.47;;;9.75;100.00
26807;BME280;14380;49.910;6.792;2023-11-18T12:12:04;99300.97;;;9.78;100.00
26807;BME280;14380;49.910;6.792;2023-11-18T12:14:49;99300.50;;;9.48;100.00
26807;BME280;14380;49.910;6.792;2023-11-18T12:17:18;99293.84;;;9.39;100.00
26807;BME280;14380;49.910;6.792;2023-11-18T12:19:48;99287.81;;;9.35;100.00
26807;BME280;14380;49.910;6.792;2023-11-18T12:22:17;99280.25;;;9.69;100.00
26807;BME280;14380;49.910;6.792;2023-11-18T12:28:07;99268.22;;;10.03;100.00
26807;BME280;14380;49.910;6.792;2023-11-18T12:30:41;99273.59;;;9.81;100.00
26807;BME280;14380;49.910;6.792;2023-11-18T12:33:20;99261.84;;;9.88;100.00
26807;BME280;14380;49.910;6.792;2023-11-18T12:39:07;99232.94;;;9.66;100.00
26807;BME280;14380;49.910;6.792;2023-11-18T12:41:42;99210.66;;;9.73;100.00
26807;BME280;14380;49.910;6.792;2023-11-18T12:44:15;99206.13;;;9.56;100.00
26807;BME280;14380;49.910;6.792;2023-11-18T12:46:51;99183.63;;;9.68;100.00
26807;BME280;14380;49.910;6.792;2023-11-18T12:49:19;99172.22;;;9.48;100.00
26807;BME280;14380;49.910;6.792;2023-11-18T12:51:50;99164.53;;;9.82;100.00
26807;BME280;14380;49.910;6.792;2023-11-18T12:54:18;99163.69;;;9.62;100.00
26807;BME280;14380;49.910;6.792;2023-11-18T12:56:45;99160.97;;;10.21;100.00
26807;BME280;14380;49.910;6.792;2023-11-18T12:59:16;99169.66;;;9.66;100.00
26807;BME280;14380;49.910;6.792;2023-11-18T13:01:45;99156.28;;;9.71;100.00
26807;BME280;14380;49.910;6.792;2023-11-18T13:04:52;99163.13;;;9.94;100.00
26807;BME280;14380;49.910;6.792;2023-11-18T13:07:19;99163.84;;;9.97;100.00
26807;BME280;14380;49.910;6.792;2023-11-18T13:09:47;99155.94;;;9.97;100.00
26807;BME280;14380;49.910;6.792;2023-11-18T13:12:14;99149.56;;;10.21;100.00
26807;BME280;14380;49.910;6.792;2023-11-18T13:14:44;99150.38;;;9.85;100.00
26807;BME280;14380;49.910;6.792;2023-11-18T13:17:12;99157.03;;;9.73;100.00